Mechanic Falls, Maine
Current Conditions -  °F | °C
As of 8:35 PM on Thursday 18 Dec 2014 (Local Time) from KLEW Reporting Station
Overcast Overcast  
Wind Chill: 26°   Ceiling: 3100
Heat Index: 34°   Visibility: 10mi
Dew Point: 23°   Wind: 9mph
Humidity: 65%   Direction: 310°NW
Pressure: 29.78"   Gusts: NA
Location:  44.11°N, 70.39°W
Report Text: KLEW 190135Z AUTO 31008KT 10SM OVC031 01/M05 A2978 RMK AO1
Loading
Personal Weather Stations






























Interactive Weather Map New forecast layout! Learn more

10-Day Weather Forecast

Advertisements
Track Severe Weather on mobile